sensor_id;sensor_type;location;lat;lon;timestamp;pressure;altitude;pressure_sealevel;temperature
15079;BMP180;6932;51.438;5.470;2024-03-08T00:02:17;101317.00;;;12.10
15079;BMP180;6932;51.438;5.470;2024-03-08T00:04:43;101317.00;;;12.00
15079;BMP180;6932;51.438;5.470;2024-03-08T00:07:10;101323.00;;;12.00
15079;BMP180;6932;51.438;5.470;2024-03-08T00:09:36;101307.00;;;12.00
15079;BMP180;6932;51.438;5.470;2024-03-08T00:12:02;101306.00;;;12.00
15079;BMP180;6932;51.438;5.470;2024-03-08T00:14:27;101305.00;;;12.00
15079;BMP180;6932;51.438;5.470;2024-03-08T00:16:53;101305.00;;;11.90
15079;BMP180;6932;51.438;5.470;2024-03-08T00:19:19;101305.00;;;11.90
15079;BMP180;6932;51.438;5.470;2024-03-08T00:21:45;101308.00;;;11.90
15079;BMP180;6932;51.438;5.470;2024-03-08T00:24:11;101306.00;;;11.90
15079;BMP180;6932;51.438;5.470;2024-03-08T00:26:37;101303.00;;;11.90
15079;BMP180;6932;51.438;5.470;2024-03-08T00:29:03;101298.00;;;11.80
15079;BMP180;6932;51.438;5.470;2024-03-08T00:31:29;101291.00;;;11.80
15079;BMP180;6932;51.438;5.470;2024-03-08T00:33:56;101296.00;;;11.80
15079;BMP180;6932;51.438;5.470;2024-03-08T00:36:23;101291.00;;;11.80
15079;BMP180;6932;51.438;5.470;2024-03-08T00:38:48;101291.00;;;11.80
15079;BMP180;6932;51.438;5.470;2024-03-08T00:41:14;101292.00;;;11.80
15079;BMP180;6932;51.438;5.470;2024-03-08T00:43:40;101279.00;;;11.70
15079;BMP180;6932;51.438;5.470;2024-03-08T00:46:05;101287.00;;;11.70
15079;BMP180;6932;51.438;5.470;2024-03-08T00:48:31;101283.00;;;11.70
15079;BMP180;6932;51.438;5.470;2024-03-08T00:50:57;101286.00;;;11.70
15079;BMP180;6932;51.438;5.470;2024-03-08T00:53:23;101265.00;;;11.70
15079;BMP180;6932;51.438;5.470;2024-03-08T00:55:49;101277.00;;;11.70
15079;BMP180;6932;51.438;5.470;2024-03-08T00:58:15;101264.00;;;11.60
15079;BMP180;6932;51.438;5.470;2024-03-08T01:00:40;101264.00;;;11.60
15079;BMP180;6932;51.438;5.470;2024-03-08T01:03:06;101267.00;;;11.60
15079;BMP180;6932;51.438;5.470;2024-03-08T01:05:33;101258.00;;;11.60
15079;BMP180;6932;51.438;5.470;2024-03-08T01:08:00;101260.00;;;11.60
15079;BMP180;6932;51.438;5.470;2024-03-08T01:10:28;101258.00;;;11.60
15079;BMP180;6932;51.438;5.470;2024-03-08T01:12:54;101260.00;;;11.60
15079;BMP180;6932;51.438;5.470;2024-03-08T01:15:23;101252.00;;;11.50
15079;BMP180;6932;51.438;5.470;2024-03-08T01:17:49;101251.00;;;11.50
15079;BMP180;6932;51.438;5.470;2024-03-08T01:20:15;101250.00;;;11.50
15079;BMP180;6932;51.438;5.470;2024-03-08T01:22:41;101243.00;;;11.50
15079;BMP180;6932;51.438;5.470;2024-03-08T01:25:07;101247.00;;;11.50
15079;BMP180;6932;51.438;5.470;2024-03-08T01:27:34;101241.00;;;11.40
15079;BMP180;6932;51.438;5.470;2024-03-08T01:30:01;101237.00;;;11.40
15079;BMP180;6932;51.438;5.470;2024-03-08T01:32:26;101242.00;;;11.40
15079;BMP180;6932;51.438;5.470;2024-03-08T01:34:53;101234.00;;;11.40
15079;BMP180;6932;51.438;5.470;2024-03-08T01:37:18;101225.00;;;11.40
15079;BMP180;6932;51.438;5.470;2024-03-08T01:39:45;101235.00;;;11.30
15079;BMP180;6932;51.438;5.470;2024-03-08T01:42:11;101234.00;;;11.30
15079;BMP180;6932;51.438;5.470;2024-03-08T01:44:40;101240.00;;;11.30
15079;BMP180;6932;51.438;5.470;2024-03-08T01:47:07;101227.00;;;11.30
15079;BMP180;6932;51.438;5.470;2024-03-08T01:49:32;101228.00;;;11.30
15079;BMP180;6932;51.438;5.470;2024-03-08T01:51:59;101218.00;;;11.30
15079;BMP180;6932;51.438;5.470;2024-03-08T01:54:26;101224.00;;;11.20
15079;BMP180;6932;51.438;5.470;2024-03-08T01:56:52;101216.00;;;11.20
15079;BMP180;6932;51.438;5.470;2024-03-08T01:59:19;101206.00;;;11.20
15079;BMP180;6932;51.438;5.470;2024-03-08T02:01:45;101214.00;;;11.20
15079;BMP180;6932;51.438;5.470;2024-03-08T02:04:10;101211.00;;;11.20
15079;BMP180;6932;51.438;5.470;2024-03-08T02:06:36;101209.00;;;11.20
15079;BMP180;6932;51.438;5.470;2024-03-08T02:09:04;101204.00;;;11.10
15079;BMP180;6932;51.438;5.470;2024-03-08T02:11:33;101204.00;;;11.10
15079;BMP180;6932;51.438;5.470;2024-03-08T02:13:59;101209.00;;;11.10
15079;BMP180;6932;51.438;5.470;2024-03-08T02:16:25;101200.00;;;11.10
15079;BMP180;6932;51.438;5.470;2024-03-08T02:18:51;101200.00;;;11.10
15079;BMP180;6932;51.438;5.470;2024-03-08T02:21:18;101199.00;;;11.10
15079;BMP180;6932;51.438;5.470;2024-03-08T02:23:44;101194.00;;;11.10
15079;BMP180;6932;51.438;5.470;2024-03-08T02:26:10;101191.00;;;11.00
15079;BMP180;6932;51.438;5.470;2024-03-08T02:28:36;101186.00;;;11.00
15079;BMP180;6932;51.438;5.470;2024-03-08T02:31:03;101179.00;;;11.00
15079;BMP180;6932;51.438;5.470;2024-03-08T02:33:34;101182.00;;;11.00
15079;BMP180;6932;51.438;5.470;2024-03-08T02:35:59;101175.00;;;11.00
15079;BMP180;6932;51.438;5.470;2024-03-08T02:38:25;101182.00;;;11.00
15079;BMP180;6932;51.438;5.470;2024-03-08T02:40:53;101172.00;;;10.90
15079;BMP180;6932;51.438;5.470;2024-03-08T02:43:21;101168.00;;;10.90
15079;BMP180;6932;51.438;5.470;2024-03-08T02:45:48;101162.00;;;10.90
15079;BMP180;6932;51.438;5.470;2024-03-08T02:48:15;101163.00;;;10.90
15079;BMP180;6932;51.438;5.470;2024-03-08T02:50:42;101156.00;;;10.90
15079;BMP180;6932;51.438;5.470;2024-03-08T02:53:12;101154.00;;;10.90
15079;BMP180;6932;51.438;5.470;2024-03-08T02:55:39;101148.00;;;10.90
15079;BMP180;6932;51.438;5.470;2024-03-08T02:58:05;101145.00;;;10.80
15079;BMP180;6932;51.438;5.470;2024-03-08T03:00:31;101143.00;;;10.80
15079;BMP180;6932;51.438;5.470;2024-03-08T03:02:58;101137.00;;;10.80
15079;BMP180;6932;51.438;5.470;2024-03-08T03:05:24;101140.00;;;10.80
15079;BMP180;6932;51.438;5.470;2024-03-08T03:07:51;101131.00;;;10.80
15079;BMP180;6932;51.438;5.470;2024-03-08T03:10:17;101133.00;;;10.80
15079;BMP180;6932;51.438;5.470;2024-03-08T03:12:44;101129.00;;;10.80
15079;BMP180;6932;51.438;5.470;2024-03-08T03:15:12;101125.00;;;10.80
15079;BMP180;6932;51.438;5.470;2024-03-08T03:17:39;101119.00;;;10.80
15079;BMP180;6932;51.438;5.470;2024-03-08T03:20:07;101128.00;;;10.80
15079;BMP180;6932;51.438;5.470;2024-03-08T03:22:36;101125.00;;;10.70
15079;BMP180;6932;51.438;5.470;2024-03-08T03:25:03;101125.00;;;10.70
15079;BMP180;6932;51.438;5.470;2024-03-08T03:27:32;101120.00;;;10.70
15079;BMP180;6932;51.438;5.470;2024-03-08T03:29:58;101120.00;;;10.70
15079;BMP180;6932;51.438;5.470;2024-03-08T03:32:32;101126.00;;;10.70
15079;BMP180;6932;51.438;5.470;2024-03-08T03:34:58;101113.00;;;10.70
15079;BMP180;6932;51.438;5.470;2024-03-08T03:37:24;101117.00;;;10.60
15079;BMP180;6932;51.438;5.470;2024-03-08T03:39:49;101111.00;;;10.60
15079;BMP180;6932;51.438;5.470;2024-03-08T03:42:19;101106.00;;;10.60
15079;BMP180;6932;51.438;5.470;2024-03-08T03:44:46;101110.00;;;10.60
15079;BMP180;6932;51.438;5.470;2024-03-08T03:47:14;101096.00;;;10.60
15079;BMP180;6932;51.438;5.470;2024-03-08T03:49:42;101102.00;;;10.60
15079;BMP180;6932;51.438;5.470;2024-03-08T03:52:09;101101.00;;;10.60
15079;BMP180;6932;51.438;5.470;2024-03-08T03:54:35;101101.00;;;10.50
15079;BMP180;6932;51.438;5.470;2024-03-08T03:57:02;101094.00;;;10.60
15079;BMP180;6932;51.438;5.470;2024-03-08T03:59:28;101094.00;;;10.60
15079;BMP180;6932;51.438;5.470;2024-03-08T04:01:54;101085.00;;;10.60
15079;BMP180;6932;51.438;5.470;2024-03-08T04:04:21;101086.00;;;10.60
15079;BMP180;6932;51.438;5.470;2024-03-08T04:06:47;101083.00;;;10.60
15079;BMP180;6932;51.438;5.470;2024-03-08T04:09:13;101084.00;;;10.50
15079;BMP180;6932;51.438;5.470;2024-03-08T04:11:39;101080.00;;;10.60
15079;BMP180;6932;51.438;5.470;2024-03-08T04:14:06;101076.00;;;10.50
15079;BMP180;6932;51.438;5.470;2024-03-08T04:16:32;101070.00;;;10.50
15079;BMP180;6932;51.438;5.470;2024-03-08T04:18:58;101078.00;;;10.50
15079;BMP180;6932;51.438;5.470;2024-03-08T04:21:24;101070.00;;;10.50
15079;BMP180;6932;51.438;5.470;2024-03-08T04:23:50;101067.00;;;10.50
15079;BMP180;6932;51.438;5.470;2024-03-08T04:26:15;101072.00;;;10.50
15079;BMP180;6932;51.438;5.470;2024-03-08T04:28:41;101064.00;;;10.50
15079;BMP180;6932;51.438;5.470;2024-03-08T04:31:07;101065.00;;;10.50
15079;BMP180;6932;51.438;5.470;2024-03-08T04:33:33;101064.00;;;10.50
15079;BMP180;6932;51.438;5.470;2024-03-08T04:36:01;101066.00;;;10.50
15079;BMP180;6932;51.438;5.470;2024-03-08T04:38:30;101066.00;;;10.50
15079;BMP180;6932;51.438;5.470;2024-03-08T04:40:57;101061.00;;;10.50
15079;BMP180;6932;51.438;5.470;2024-03-08T04:43:24;101068.00;;;10.40
15079;BMP180;6932;51.438;5.470;2024-03-08T04:45:56;101056.00;;;10.40
15079;BMP180;6932;51.438;5.470;2024-03-08T04:48:21;101056.00;;;10.40
15079;BMP180;6932;51.438;5.470;2024-03-08T04:50:47;101060.00;;;10.40
15079;BMP180;6932;51.438;5.470;2024-03-08T04:53:13;101055.00;;;10.40
15079;BMP180;6932;51.438;5.470;2024-03-08T04:55:39;101058.00;;;10.40
15079;BMP180;6932;51.438;5.470;2024-03-08T04:58:05;101050.00;;;10.40
15079;BMP180;6932;51.438;5.470;2024-03-08T05:00:33;101049.00;;;10.40
15079;BMP180;6932;51.438;5.470;2024-03-08T05:02:59;101045.00;;;10.40
15079;BMP180;6932;51.438;5.470;2024-03-08T05:05:25;101035.00;;;10.40
15079;BMP180;6932;51.438;5.470;2024-03-08T05:07:53;101042.00;;;10.40
15079;BMP180;6932;51.438;5.470;2024-03-08T05:10:19;101038.00;;;10.40
15079;BMP180;6932;51.438;5.470;2024-03-08T05:12:44;101039.00;;;10.40
15079;BMP180;6932;51.438;5.470;2024-03-08T05:15:10;101045.00;;;10.40
15079;BMP180;6932;51.438;5.470;2024-03-08T05:17:36;101032.00;;;10.40
15079;BMP180;6932;51.438;5.470;2024-03-08T05:20:02;101029.00;;;10.30
15079;BMP180;6932;51.438;5.470;2024-03-08T05:22:29;101041.00;;;10.30
15079;BMP180;6932;51.438;5.470;2024-03-08T05:24:55;101028.00;;;10.30
15079;BMP180;6932;51.438;5.470;2024-03-08T05:27:21;101034.00;;;10.30
15079;BMP180;6932;51.438;5.470;2024-03-08T05:29:46;101040.00;;;10.30
15079;BMP180;6932;51.438;5.470;2024-03-08T05:32:12;101026.00;;;10.30
15079;BMP180;6932;51.438;5.470;2024-03-08T05:34:38;101041.00;;;10.20
15079;BMP180;6932;51.438;5.470;2024-03-08T05:37:04;101029.00;;;10.20
15079;BMP180;6932;51.438;5.470;2024-03-08T05:39:30;101034.00;;;10.20
15079;BMP180;6932;51.438;5.470;2024-03-08T05:41:56;101017.00;;;10.20
15079;BMP180;6932;51.438;5.470;2024-03-08T05:44:22;101016.00;;;10.20
15079;BMP180;6932;51.438;5.470;2024-03-08T05:46:48;101011.00;;;10.20
15079;BMP180;6932;51.438;5.470;2024-03-08T05:49:14;101010.00;;;10.20
15079;BMP180;6932;51.438;5.470;2024-03-08T05:51:40;101015.00;;;10.10
15079;BMP180;6932;51.438;5.470;2024-03-08T05:54:11;101006.00;;;10.10
15079;BMP180;6932;51.438;5.470;2024-03-08T05:56:38;101005.00;;;10.10
15079;BMP180;6932;51.438;5.470;2024-03-08T05:59:06;101010.00;;;10.10
15079;BMP180;6932;51.438;5.470;2024-03-08T06:01:32;101008.00;;;10.10
15079;BMP180;6932;51.438;5.470;2024-03-08T06:03:58;101004.00;;;10.10
15079;BMP180;6932;51.438;5.470;2024-03-08T06:06:25;100996.00;;;10.10
15079;BMP180;6932;51.438;5.470;2024-03-08T06:08:51;100996.00;;;10.10
15079;BMP180;6932;51.438;5.470;2024-03-08T06:11:19;100995.00;;;10.10
15079;BMP180;6932;51.438;5.470;2024-03-08T06:13:46;100996.00;;;10.10
15079;BMP180;6932;51.438;5.470;2024-03-08T06:16:12;100993.00;;;10.10
15079;BMP180;6932;51.438;5.470;2024-03-08T06:18:38;100990.00;;;10.10
15079;BMP180;6932;51.438;5.470;2024-03-08T06:21:08;100989.00;;;10.10
15079;BMP180;6932;51.438;5.470;2024-03-08T06:23:41;100982.00;;;10.10
15079;BMP180;6932;51.438;5.470;2024-03-08T06:26:07;100983.00;;;10.10
15079;BMP180;6932;51.438;5.470;2024-03-08T06:28:34;100972.00;;;10.10
15079;BMP180;6932;51.438;5.470;2024-03-08T06:31:03;100975.00;;;10.10
15079;BMP180;6932;51.438;5.470;2024-03-08T06:33:29;100985.00;;;10.10
15079;BMP180;6932;51.438;5.470;2024-03-08T06:35:57;100980.00;;;10.10
15079;BMP180;6932;51.438;5.470;2024-03-08T06:38:26;100978.00;;;10.10
15079;BMP180;6932;51.438;5.470;2024-03-08T06:40:52;100982.00;;;10.10
15079;BMP180;6932;51.438;5.470;2024-03-08T06:43:20;100980.00;;;10.20
15079;BMP180;6932;51.438;5.470;2024-03-08T06:45:46;100960.00;;;10.20
15079;BMP180;6932;51.438;5.470;2024-03-08T06:48:17;100971.00;;;10.30
15079;BMP180;6932;51.438;5.470;2024-03-08T06:50:47;100980.00;;;10.40
15079;BMP180;6932;51.438;5.470;2024-03-08T06:53:13;100964.00;;;10.50
15079;BMP180;6932;51.438;5.470;2024-03-08T06:55:40;100972.00;;;10.50
15079;BMP180;6932;51.438;5.470;2024-03-08T06:58:06;100973.00;;;10.60
15079;BMP180;6932;51.438;5.470;2024-03-08T07:00:37;100974.00;;;10.70
15079;BMP180;6932;51.438;5.470;2024-03-08T07:03:03;100968.00;;;10.70
15079;BMP180;6932;51.438;5.470;2024-03-08T07:05:29;100981.00;;;10.80
15079;BMP180;6932;51.438;5.470;2024-03-08T07:07:56;100974.00;;;10.90
15079;BMP180;6932;51.438;5.470;2024-03-08T07:10:22;100974.00;;;11.00
15079;BMP180;6932;51.438;5.470;2024-03-08T07:12:51;100974.00;;;11.00
15079;BMP180;6932;51.438;5.470;2024-03-08T07:15:19;100966.00;;;11.10
15079;BMP180;6932;51.438;5.470;2024-03-08T07:17:46;100961.00;;;11.20
15079;BMP180;6932;51.438;5.470;2024-03-08T07:20:13;100975.00;;;11.30
15079;BMP180;6932;51.438;5.470;2024-03-08T07:22:41;100967.00;;;11.30
15079;BMP180;6932;51.438;5.470;2024-03-08T07:25:07;100966.00;;;11.40
15079;BMP180;6932;51.438;5.470;2024-03-08T07:27:36;100967.00;;;11.50
15079;BMP180;6932;51.438;5.470;2024-03-08T07:30:05;100954.00;;;11.60
15079;BMP180;6932;51.438;5.470;2024-03-08T07:32:31;100957.00;;;11.70
15079;BMP180;6932;51.438;5.470;2024-03-08T07:34:57;100950.00;;;11.80
15079;BMP180;6932;51.438;5.470;2024-03-08T07:37:24;100949.00;;;11.90
15079;BMP180;6932;51.438;5.470;2024-03-08T07:39:50;100944.00;;;12.00
15079;BMP180;6932;51.438;5.470;2024-03-08T07:42:15;100951.00;;;12.10
15079;BMP180;6932;51.438;5.470;2024-03-08T07:44:42;100939.00;;;12.10
15079;BMP180;6932;51.438;5.470;2024-03-08T07:47:08;100948.00;;;12.20
15079;BMP180;6932;51.438;5.470;2024-03-08T07:49:35;100941.00;;;12.30
15079;BMP180;6932;51.438;5.470;2024-03-08T07:52:03;100929.00;;;12.30
15079;BMP180;6932;51.438;5.470;2024-03-08T07:54:30;100934.00;;;12.40
15079;BMP180;6932;51.438;5.470;2024-03-08T07:56:56;100925.00;;;12.50
15079;BMP180;6932;51.438;5.470;2024-03-08T07:59:22;100926.00;;;12.70
15079;BMP180;6932;51.438;5.470;2024-03-08T08:01:48;100921.00;;;12.70
15079;BMP180;6932;51.438;5.470;2024-03-08T08:04:14;100918.00;;;12.80
15079;BMP180;6932;51.438;5.470;2024-03-08T08:06:40;100909.00;;;12.90
15079;BMP180;6932;51.438;5.470;2024-03-08T08:09:09;100917.00;;;13.00
15079;BMP180;6932;51.438;5.470;2024-03-08T08:11:41;100907.00;;;13.10
15079;BMP180;6932;51.438;5.470;2024-03-08T08:14:10;100906.00;;;13.20
15079;BMP180;6932;51.438;5.470;2024-03-08T08:16:36;100904.00;;;13.20
15079;BMP180;6932;51.438;5.470;2024-03-08T08:19:03;100912.00;;;13.30
15079;BMP180;6932;51.438;5.470;2024-03-08T08:21:36;100895.00;;;13.40
15079;BMP180;6932;51.438;5.470;2024-03-08T08:24:05;100896.00;;;13.40
15079;BMP180;6932;51.438;5.470;2024-03-08T08:26:32;100897.00;;;13.50
15079;BMP180;6932;51.438;5.470;2024-03-08T08:28:59;100894.00;;;13.60
15079;BMP180;6932;51.438;5.470;2024-03-08T08:31:26;100892.00;;;13.60
15079;BMP180;6932;51.438;5.470;2024-03-08T08:33:52;100894.00;;;13.70
15079;BMP180;6932;51.438;5.470;2024-03-08T08:36:24;100875.00;;;13.80
15079;BMP180;6932;51.438;5.470;2024-03-08T08:38:50;100882.00;;;13.80
15079;BMP180;6932;51.438;5.470;2024-03-08T08:41:16;100882.00;;;13.90
15079;BMP180;6932;51.438;5.470;2024-03-08T08:43:43;100880.00;;;14.00
15079;BMP180;6932;51.438;5.470;2024-03-08T08:46:11;100887.00;;;14.10
15079;BMP180;6932;51.438;5.470;2024-03-08T08:48:40;100874.00;;;14.10
15079;BMP180;6932;51.438;5.470;2024-03-08T08:51:13;100869.00;;;14.20
15079;BMP180;6932;51.438;5.470;2024-03-08T08:53:39;100880.00;;;14.30
15079;BMP180;6932;51.438;5.470;2024-03-08T08:56:11;100870.00;;;14.30
15079;BMP180;6932;51.438;5.470;2024-03-08T08:58:42;100866.00;;;14.30
15079;BMP180;6932;51.438;5.470;2024-03-08T09:01:09;100863.00;;;14.30
15079;BMP180;6932;51.438;5.470;2024-03-08T09:03:38;100870.00;;;14.40
15079;BMP180;6932;51.438;5.470;2024-03-08T09:06:07;100865.00;;;14.40
15079;BMP180;6932;51.438;5.470;2024-03-08T09:08:36;100857.00;;;14.50
15079;BMP180;6932;51.438;5.470;2024-03-08T09:11:03;100850.00;;;14.60
15079;BMP180;6932;51.438;5.470;2024-03-08T09:13:29;100846.00;;;14.60
15079;BMP180;6932;51.438;5.470;2024-03-08T09:15:56;100837.00;;;14.70
15079;BMP180;6932;51.438;5.470;2024-03-08T09:18:22;100834.00;;;14.70
15079;BMP180;6932;51.438;5.470;2024-03-08T09:20:48;100829.00;;;14.80
15079;BMP180;6932;51.438;5.470;2024-03-08T09:23:14;100830.00;;;14.90
15079;BMP180;6932;51.438;5.470;2024-03-08T09:25:42;100827.00;;;15.00
15079;BMP180;6932;51.438;5.470;2024-03-08T09:28:09;100822.00;;;15.10
15079;BMP180;6932;51.438;5.470;2024-03-08T09:30:37;100627.00;;;14.70
15079;BMP180;6932;51.438;5.470;2024-03-08T09:33:04;100636.00;;;14.40
15079;BMP180;6932;51.438;5.470;2024-03-08T09:35:31;100634.00;;;14.20
15079;BMP180;6932;51.438;5.470;2024-03-08T09:37:57;100627.00;;;13.90
15079;BMP180;6932;51.438;5.470;2024-03-08T09:40:23;100624.00;;;13.80
15079;BMP180;6932;51.438;5.470;2024-03-08T09:42:51;100615.00;;;13.70
15079;BMP180;6932;51.438;5.470;2024-03-08T09:45:20;100609.00;;;13.60
15079;BMP180;6932;51.438;5.470;2024-03-08T09:47:50;100778.00;;;13.80
15079;BMP180;6932;51.438;5.470;2024-03-08T09:50:16;100777.00;;;14.10
15079;BMP180;6932;51.438;5.470;2024-03-08T09:52:46;100766.00;;;14.30
15079;BMP180;6932;51.438;5.470;2024-03-08T09:55:13;100773.00;;;14.50
15079;BMP180;6932;51.438;5.470;2024-03-08T09:57:40;100769.00;;;14.70
15079;BMP180;6932;51.438;5.470;2024-03-08T10:00:07;100743.00;;;14.80
15079;BMP180;6932;51.438;5.470;2024-03-08T10:03:03;100740.00;;;14.90
15079;BMP180;6932;51.438;5.470;2024-03-08T10:05:30;100743.00;;;15.00
15079;BMP180;6932;51.438;5.470;2024-03-08T10:07:58;100739.00;;;15.10
15079;BMP180;6932;51.438;5.470;2024-03-08T10:10:24;100730.00;;;15.20
15079;BMP180;6932;51.438;5.470;2024-03-08T10:12:50;100739.00;;;15.30
15079;BMP180;6932;51.438;5.470;2024-03-08T10:15:17;100729.00;;;15.40
15079;BMP180;6932;51.438;5.470;2024-03-08T10:17:42;100737.00;;;15.50
15079;BMP180;6932;51.438;5.470;2024-03-08T10:20:17;100719.00;;;15.60
15079;BMP180;6932;51.438;5.470;2024-03-08T10:22:44;100731.00;;;15.70
15079;BMP180;6932;51.438;5.470;2024-03-08T10:25:11;100715.00;;;15.70
15079;BMP180;6932;51.438;5.470;2024-03-08T10:27:40;100719.00;;;15.70
15079;BMP180;6932;51.438;5.470;2024-03-08T10:30:14;100710.00;;;15.70
15079;BMP180;6932;51.438;5.470;2024-03-08T10:32:41;100711.00;;;15.80
15079;BMP180;6932;51.438;5.470;2024-03-08T10:35:09;100691.00;;;15.80
15079;BMP180;6932;51.438;5.470;2024-03-08T10:37:50;100696.00;;;15.80
15079;BMP180;6932;51.438;5.470;2024-03-08T10:40:26;100684.00;;;15.90
15079;BMP180;6932;51.438;5.470;2024-03-08T10:42:56;100681.00;;;16.00
15079;BMP180;6932;51.438;5.470;2024-03-08T10:45:36;100674.00;;;16.00
15079;BMP180;6932;51.438;5.470;2024-03-08T10:48:28;100683.00;;;16.10
15079;BMP180;6932;51.438;5.470;2024-03-08T10:50:58;100679.00;;;16.20
15079;BMP180;6932;51.438;5.470;2024-03-08T10:53:28;100678.00;;;16.20
15079;BMP180;6932;51.438;5.470;2024-03-08T10:55:57;100682.00;;;16.20
15079;BMP180;6932;51.438;5.470;2024-03-08T10:58:25;100666.00;;;16.20
15079;BMP180;6932;51.438;5.470;2024-03-08T11:00:57;100665.00;;;16.20
15079;BMP180;6932;51.438;5.470;2024-03-08T11:06:23;100651.00;;;16.20
15079;BMP180;6932;51.438;5.470;2024-03-08T11:08:50;100648.00;;;16.30
15079;BMP180;6932;51.438;5.470;2024-03-08T11:11:32;100638.00;;;16.40
15079;BMP180;6932;51.438;5.470;2024-03-08T11:14:01;100631.00;;;16.50
15079;BMP180;6932;51.438;5.470;2024-03-08T11:19:01;100643.00;;;16.50
15079;BMP180;6932;51.438;5.470;2024-03-08T11:21:31;100651.00;;;16.60
15079;BMP180;6932;51.438;5.470;2024-03-08T11:24:12;100635.00;;;16.50
15079;BMP180;6932;51.438;5.470;2024-03-08T11:26:40;100615.00;;;16.60
15079;BMP180;6932;51.438;5.470;2024-03-08T11:29:33;100624.00;;;16.50
15079;BMP180;6932;51.438;5.470;2024-03-08T11:32:11;100627.00;;;16.60
15079;BMP180;6932;51.438;5.470;2024-03-08T11:34:41;100642.00;;;16.60
15079;BMP180;6932;51.438;5.470;2024-03-08T11:37:17;100611.00;;;16.50
15079;BMP180;6932;51.438;5.470;2024-03-08T11:39:51;100620.00;;;16.60
15079;BMP180;6932;51.438;5.470;2024-03-08T11:42:18;100618.00;;;16.60
15079;BMP180;6932;51.438;5.470;2024-03-08T11:44:45;100609.00;;;16.50
15079;BMP180;6932;51.438;5.470;2024-03-08T11:47:12;100611.00;;;16.50
15079;BMP180;6932;51.438;5.470;2024-03-08T11:49:38;100611.00;;;16.50
15079;BMP180;6932;51.438;5.470;2024-03-08T11:52:11;100608.00;;;16.50
15079;BMP180;6932;51.438;5.470;2024-03-08T11:54:51;100603.00;;;16.50
15079;BMP180;6932;51.438;5.470;2024-03-08T11:57:21;100610.00;;;16.60
15079;BMP180;6932;51.438;5.470;2024-03-08T11:59:52;100597.00;;;16.60
15079;BMP180;6932;51.438;5.470;2024-03-08T12:02:18;100581.00;;;16.60
15079;BMP180;6932;51.438;5.470;2024-03-08T12:04:45;100577.00;;;16.60
15079;BMP180;6932;51.438;5.470;2024-03-08T12:07:14;100582.00;;;16.60
15079;BMP180;6932;51.438;5.470;2024-03-08T12:10:16;100569.00;;;16.50
15079;BMP180;6932;51.438;5.470;2024-03-08T12:12:51;100576.00;;;16.50
15079;BMP180;6932;51.438;5.470;2024-03-08T12:15:19;100570.00;;;16.50
15079;BMP180;6932;51.438;5.470;2024-03-08T12:17:50;100578.00;;;16.50
15079;BMP180;6932;51.438;5.470;2024-03-08T12:22:50;100563.00;;;16.60
15079;BMP180;6932;51.438;5.470;2024-03-08T12:25:22;100557.00;;;16.60
15079;BMP180;6932;51.438;5.470;2024-03-08T12:27:48;100562.00;;;16.70
15079;BMP180;6932;51.438;5.470;2024-03-08T12:30:27;100557.00;;;16.60
15079;BMP180;6932;51.438;5.470;2024-03-08T12:32:59;100545.00;;;16.60
15079;BMP180;6932;51.438;5.470;2024-03-08T12:35:28;100553.00;;;16.60
15079;BMP180;6932;51.438;5.470;2024-03-08T12:37:56;100533.00;;;16.60
15079;BMP180;6932;51.438;5.470;2024-03-08T12:40:31;100538.00;;;16.60
15079;BMP180;6932;51.438;5.470;2024-03-08T12:43:01;100540.00;;;16.60
15079;BMP180;6932;51.438;5.470;2024-03-08T12:45:32;100528.00;;;16.60
15079;BMP180;6932;51.438;5.470;2024-03-08T12:47:58;100544.00;;;16.60
15079;BMP180;6932;51.438;5.470;2024-03-08T12:50:25;100534.00;;;16.60
15079;BMP180;6932;51.438;5.470;2024-03-08T12:52:51;100500.00;;;16.60
15079;BMP180;6932;51.438;5.470;2024-03-08T12:55:19;100525.00;;;16.60
15079;BMP180;6932;51.438;5.470;2024-03-08T12:57:47;100522.00;;;16.60
15079;BMP180;6932;51.438;5.470;2024-03-08T13:00:14;100514.00;;;16.60
15079;BMP180;6932;51.438;5.470;2024-03-08T13:02:48;100507.00;;;16.60
15079;BMP180;6932;51.438;5.470;2024-03-08T13:05:16;100495.00;;;16.70
15079;BMP180;6932;51.438;5.470;2024-03-08T13:07:43;100494.00;;;16.80
15079;BMP180;6932;51.438;5.470;2024-03-08T13:10:15;100491.00;;;16.80
15079;BMP180;6932;51.438;5.470;2024-03-08T13:12:45;100495.00;;;16.80
15079;BMP180;6932;51.438;5.470;2024-03-08T13:15:11;100488.00;;;16.80
15079;BMP180;6932;51.438;5.470;2024-03-08T13:17:41;100483.00;;;16.80
15079;BMP180;6932;51.438;5.470;2024-03-08T13:20:08;100486.00;;;16.70
15079;BMP180;6932;51.438;5.470;2024-03-08T13:22:35;100482.00;;;16.80
15079;BMP180;6932;51.438;5.470;2024-03-08T13:25:02;100479.00;;;16.80
15079;BMP180;6932;51.438;5.470;2024-03-08T13:27:28;100475.00;;;16.80
15079;BMP180;6932;51.438;5.470;2024-03-08T13:29:54;100476.00;;;16.80
15079;BMP180;6932;51.438;5.470;2024-03-08T13:32:20;100475.00;;;16.80
15079;BMP180;6932;51.438;5.470;2024-03-08T13:34:49;100453.00;;;16.80
15079;BMP180;6932;51.438;5.470;2024-03-08T13:37:17;100452.00;;;16.80
15079;BMP180;6932;51.438;5.470;2024-03-08T13:39:42;100444.00;;;16.90
15079;BMP180;6932;51.438;5.470;2024-03-08T13:42:12;100446.00;;;16.90
15079;BMP180;6932;51.438;5.470;2024-03-08T13:44:43;100433.00;;;16.90
15079;BMP180;6932;51.438;5.470;2024-03-08T13:47:09;100438.00;;;16.90
15079;BMP180;6932;51.438;5.470;2024-03-08T13:49:37;100454.00;;;16.90
15079;BMP180;6932;51.438;5.470;2024-03-08T13:52:03;100424.00;;;16.90
15079;BMP180;6932;51.438;5.470;2024-03-08T13:54:30;100406.00;;;16.90
15079;BMP180;6932;51.438;5.470;2024-03-08T13:56:58;100418.00;;;17.00
15079;BMP180;6932;51.438;5.470;2024-03-08T13:59:24;100410.00;;;17.00
15079;BMP180;6932;51.438;5.470;2024-03-08T14:01:50;100419.00;;;17.00
15079;BMP180;6932;51.438;5.470;2024-03-08T14:04:16;100409.00;;;16.90
15079;BMP180;6932;51.438;5.470;2024-03-08T14:06:45;100405.00;;;17.00
15079;BMP180;6932;51.438;5.470;2024-03-08T14:09:11;100396.00;;;17.00
15079;BMP180;6932;51.438;5.470;2024-03-08T14:11:46;100392.00;;;17.00
15079;BMP180;6932;51.438;5.470;2024-03-08T14:14:12;100392.00;;;17.00
15079;BMP180;6932;51.438;5.470;2024-03-08T14:16:40;100385.00;;;17.00
15079;BMP180;6932;51.438;5.470;2024-03-08T14:19:06;100376.00;;;17.00
15079;BMP180;6932;51.438;5.470;2024-03-08T14:21:32;100370.00;;;17.00